createdAt,value
2019-02-08T00:00:03.081Z,-0.2
2019-02-08T00:15:02.740Z,-0.2
2019-02-08T00:30:03.369Z,-0.2
2019-02-08T00:45:03.010Z,0
2019-02-08T01:00:02.640Z,0.1
2019-02-08T01:15:03.224Z,0.2
2019-02-08T01:30:02.911Z,0.2
2019-02-08T01:45:03.218Z,0.4
2019-02-08T02:00:02.514Z,0.1
2019-02-08T02:15:02.805Z,0.1
2019-02-08T02:30:03.212Z,0.1
2019-02-08T02:45:02.624Z,-0.1
2019-02-08T03:00:03.106Z,-0.1
2019-02-08T03:15:03.397Z,-0.1
2019-02-08T03:30:02.734Z,-0.4
2019-02-08T03:45:03.054Z,-0.4
2019-02-08T04:00:03.369Z,-0.9
2019-02-08T04:15:02.617Z,-0.7
2019-02-08T04:30:03.085Z,-0.7
2019-02-08T04:45:03.269Z,-0.6
2019-02-08T05:00:02.568Z,-0.6
2019-02-08T05:15:02.886Z,-0.8
2019-02-08T05:30:03.289Z,-0.4
2019-02-08T05:45:02.580Z,-0.4
2019-02-08T06:00:02.793Z,-0.4
2019-02-08T06:15:03.307Z,-0.3
2019-02-08T06:30:02.897Z,-0.4
2019-02-08T06:45:03.205Z,-0.4
2019-02-08T07:00:02.522Z,-0.4
2019-02-08T07:15:02.812Z,-0.1
2019-02-08T07:30:03.170Z,0
2019-02-08T07:45:02.502Z,0.2
2019-02-08T08:00:02.701Z,0.4
2019-02-08T08:15:03.286Z,0.6
2019-02-08T08:30:02.657Z,0.8
2019-02-08T08:45:02.738Z,1.2
2019-02-08T09:00:03.059Z,1.5
2019-02-08T09:15:02.451Z,1.9
2019-02-08T09:30:03.001Z,2.2
2019-02-08T09:45:03.287Z,2.6
2019-02-08T10:00:02.934Z,3
2019-02-08T10:15:03.240Z,3.3
2019-02-08T10:30:02.640Z,3.8
2019-02-08T10:45:03.056Z,4.2
2019-02-08T11:00:02.659Z,4.6
2019-02-08T11:15:02.916Z,4.7
2019-02-08T11:30:03.269Z,4.8
2019-02-08T11:45:02.573Z,5
2019-02-08T12:00:02.814Z,5.3
2019-02-08T12:15:03.056Z,5.4
2019-02-08T12:30:02.748Z,5.6
2019-02-08T12:45:03.056Z,5.8
2019-02-08T13:00:03.275Z,5.8
2019-02-08T13:15:02.584Z,5.8
2019-02-08T13:30:03.206Z,5.9
2019-02-08T13:45:02.653Z,5.9
2019-02-08T14:00:03.029Z,5.9
2019-02-08T14:15:03.254Z,5.8
2019-02-08T14:30:02.658Z,5.9
2019-02-08T14:45:03.140Z,5.7
2019-02-08T15:00:02.494Z,5.3
2019-02-08T15:15:02.826Z,4.9
2019-02-08T15:30:03.288Z,4.6
2019-02-08T15:45:02.663Z,3.8
2019-02-08T16:00:02.997Z,3.1
2019-02-08T16:15:03.112Z,2.6
2019-02-08T16:30:03.426Z,2.1
2019-02-08T16:45:02.715Z,1.7
2019-02-08T17:00:04.719Z,1.4
2019-02-08T17:15:03.339Z,1
2019-02-08T17:30:02.908Z,0.9
2019-02-08T17:45:03.221Z,0.6
2019-02-08T18:00:02.508Z,0.4
2019-02-08T18:15:03.050Z,-0.2
2019-02-08T18:30:02.671Z,0.1
2019-02-08T18:45:02.934Z,-0.6
2019-02-08T19:00:02.672Z,-0.6
2019-02-08T19:15:02.817Z,-0.5
2019-02-08T19:30:03.210Z,-0.6
2019-02-08T19:45:02.734Z,-0.4
2019-02-08T20:00:03.474Z,-0.5
2019-02-08T20:15:02.830Z,-0.4
2019-02-08T20:30:02.498Z,-0.4
2019-02-08T20:45:02.777Z,-0.4
2019-02-08T21:00:03.118Z,-1
2019-02-08T21:15:03.452Z,-0.8
2019-02-08T21:30:02.765Z,-0.5
2019-02-08T21:45:03.070Z,-0.6
2019-02-08T22:00:02.968Z,-0.8
2019-02-08T22:15:02.906Z,-0.8
2019-02-08T22:30:03.253Z,-0.8
2019-02-08T22:45:08.537Z,-1.6
2019-02-08T23:00:02.573Z,-1.2
2019-02-08T23:15:03.088Z,-1.4
2019-02-08T23:30:03.086Z,-1.1
2019-02-08T23:45:03.224Z,-1.2
